Terminal Aerodrome Forecast
Issued by NWS Quad Cities IA IL

Home | Current Version | Previous Version | Text Only | Print | Product List | Glossary On
Versions: 1 2 3 4 5 6 7 8 9 10 11 12 13 14 15 16 17
000
FTUS43 KDVN 291100 RRA
TAFDBQ
TAF
KDBQ 291141Z 2912/3012 03009KT P6SM VCSH BKN040
      TEMPO 2913/2915 6SM -SHSN BKN030
     FM291800 01010KT P6SM SCT040 BKN080
     FM300000 35012KT P6SM BKN150=

USA.gov is the U.S. government's official web portal to all federal, state and local government web resources and services.